createdAt,value
2019-03-03T00:01:14.084Z,2.90
2019-03-03T00:03:45.873Z,2.90
2019-03-03T00:06:16.975Z,2.90
2019-03-03T00:08:48.113Z,2.90
2019-03-03T00:11:19.139Z,2.90
2019-03-03T00:13:50.188Z,2.90
2019-03-03T00:16:21.088Z,2.90
2019-03-03T00:18:51.982Z,2.80
2019-03-03T00:21:24.501Z,2.90
2019-03-03T00:23:55.492Z,2.80
2019-03-03T00:26:26.543Z,2.80
2019-03-03T00:28:57.536Z,2.80
2019-03-03T00:31:36.512Z,2.80
2019-03-03T00:34:08.596Z,2.80
2019-03-03T00:37:13.573Z,2.80
2019-03-03T00:39:49.043Z,2.80
2019-03-03T00:42:33.256Z,2.80
2019-03-03T00:45:19.893Z,2.80
2019-03-03T00:48:18.542Z,2.80
2019-03-03T00:51:14.445Z,2.80
2019-03-03T00:53:52.575Z,2.90
2019-03-03T00:56:38.907Z,2.90
2019-03-03T00:59:25.006Z,2.90
2019-03-03T01:02:05.677Z,2.90
2019-03-03T01:05:02.388Z,2.90
2019-03-03T01:07:52.239Z,3.00
2019-03-03T01:10:57.155Z,3.00
2019-03-03T01:13:37.224Z,3.00
2019-03-03T01:16:26.293Z,3.00
2019-03-03T01:19:07.054Z,3.00
2019-03-03T01:21:59.674Z,3.00
2019-03-03T01:24:44.980Z,3.00
2019-03-03T01:27:16.203Z,3.00
2019-03-03T01:29:47.204Z,3.00
2019-03-03T01:32:18.266Z,3.00
2019-03-03T01:34:49.262Z,3.00
2019-03-03T01:37:20.296Z,3.10
2019-03-03T01:39:51.176Z,3.10
2019-03-03T01:42:22.185Z,3.10
2019-03-03T01:44:53.191Z,3.10
2019-03-03T01:47:27.337Z,3.10
2019-03-03T01:49:59.303Z,3.00
2019-03-03T01:52:30.243Z,3.00
2019-03-03T01:55:01.138Z,2.90
2019-03-03T01:57:32.106Z,2.90
2019-03-03T02:00:03.895Z,2.80
2019-03-03T02:02:35.500Z,2.80
2019-03-03T02:05:06.462Z,2.70
2019-03-03T02:07:37.511Z,2.80
2019-03-03T02:10:08.979Z,2.80
2019-03-03T02:12:40.074Z,2.80
2019-03-03T02:15:11.535Z,2.80
2019-03-03T02:17:42.617Z,2.80
2019-03-03T02:20:13.729Z,2.80
2019-03-03T02:22:44.854Z,2.80
2019-03-03T02:25:16.197Z,2.80
2019-03-03T02:27:47.381Z,2.90
2019-03-03T02:30:20.320Z,2.90
2019-03-03T02:32:51.530Z,2.90
2019-03-03T02:35:22.549Z,2.90
2019-03-03T02:37:53.520Z,2.90
2019-03-03T02:40:24.627Z,2.90
2019-03-03T02:42:56.740Z,2.80
2019-03-03T02:45:27.615Z,2.80
2019-03-03T02:47:58.615Z,2.70
2019-03-03T02:50:29.475Z,2.70
2019-03-03T02:53:00.611Z,2.70
2019-03-03T02:55:31.740Z,2.60
2019-03-03T02:58:03.893Z,2.60
2019-03-03T03:00:36.579Z,2.60
2019-03-03T03:03:10.988Z,2.50
2019-03-03T03:05:59.344Z,2.50
2019-03-03T03:08:37.495Z,2.50
2019-03-03T03:11:42.308Z,2.50
2019-03-03T03:14:33.180Z,2.40
2019-03-03T03:17:21.889Z,2.40
2019-03-03T03:20:01.814Z,2.30
2019-03-03T03:22:58.997Z,2.30
2019-03-03T03:25:39.956Z,2.30
2019-03-03T03:28:28.089Z,2.30
2019-03-03T03:31:17.849Z,2.20
2019-03-03T03:34:13.177Z,2.20
2019-03-03T03:37:08.662Z,2.20
2019-03-03T03:39:58.384Z,2.20
2019-03-03T03:42:48.165Z,2.20
2019-03-03T03:45:36.693Z,2.30
2019-03-03T03:48:26.737Z,2.30
2019-03-03T03:51:13.444Z,2.30
2019-03-03T03:53:53.103Z,2.30
2019-03-03T03:56:43.124Z,2.30
2019-03-03T03:59:39.048Z,2.30
2019-03-03T04:02:27.397Z,2.20
2019-03-03T04:05:05.557Z,2.30
2019-03-03T04:08:04.256Z,2.30
2019-03-03T04:11:13.397Z,2.30
2019-03-03T04:14:12.405Z,2.30
2019-03-03T04:16:58.417Z,2.30
2019-03-03T04:19:38.931Z,2.30
2019-03-03T04:22:17.852Z,2.30
2019-03-03T04:25:06.528Z,2.30
2019-03-03T04:27:59.242Z,2.40
2019-03-03T04:31:07.591Z,2.40
2019-03-03T04:33:47.709Z,2.40
2019-03-03T04:36:34.857Z,2.40
2019-03-03T04:39:16.720Z,2.40
2019-03-03T04:42:15.116Z,2.50
2019-03-03T04:45:01.618Z,2.50
2019-03-03T04:47:49.474Z,2.50
2019-03-03T04:50:31.679Z,2.60
2019-03-03T04:53:19.230Z,2.60
2019-03-03T04:56:00.733Z,2.60
2019-03-03T04:58:48.701Z,2.70
2019-03-03T05:01:37.127Z,2.70
2019-03-03T05:04:17.014Z,2.70
2019-03-03T05:07:06.731Z,2.70
2019-03-03T05:09:46.676Z,2.70
2019-03-03T05:12:47.061Z,2.80
2019-03-03T05:15:36.867Z,2.80
2019-03-03T05:18:29.669Z,2.80
2019-03-03T05:21:00.670Z,2.80
2019-03-03T05:23:31.585Z,2.80
2019-03-03T05:26:02.873Z,2.80
2019-03-03T05:28:33.866Z,2.80
2019-03-03T05:31:04.877Z,2.80
2019-03-03T05:33:35.846Z,2.80
2019-03-03T05:36:06.938Z,2.80
2019-03-03T05:38:37.872Z,2.80
2019-03-03T05:41:08.903Z,2.80
2019-03-03T05:43:40.269Z,2.80
2019-03-03T05:46:11.320Z,2.80
2019-03-03T05:48:42.363Z,2.80
2019-03-03T05:51:13.474Z,2.80
2019-03-03T05:53:44.479Z,2.80
2019-03-03T05:56:16.369Z,2.90
2019-03-03T05:58:48.042Z,2.90
2019-03-03T06:01:19.352Z,2.90
2019-03-03T06:03:50.371Z,2.90
2019-03-03T06:06:21.886Z,2.90
2019-03-03T06:08:53.417Z,2.90
2019-03-03T06:11:24.420Z,3.00
2019-03-03T06:13:55.443Z,3.00
2019-03-03T06:16:26.565Z,3.10
2019-03-03T06:18:57.800Z,3.10
2019-03-03T06:21:28.939Z,3.20
2019-03-03T06:23:59.982Z,3.20
2019-03-03T06:26:31.106Z,3.30
2019-03-03T06:29:02.268Z,3.30
2019-03-03T06:31:33.410Z,3.30
2019-03-03T06:34:04.636Z,3.30
2019-03-03T06:36:35.627Z,3.30
2019-03-03T06:39:08.244Z,3.30
2019-03-03T06:41:39.357Z,3.20
2019-03-03T06:44:10.333Z,3.30
2019-03-03T06:46:42.315Z,3.30
2019-03-03T06:49:13.463Z,3.30
2019-03-03T06:51:44.516Z,3.40
2019-03-03T06:54:15.457Z,3.40
2019-03-03T06:56:46.792Z,3.40
2019-03-03T06:59:17.887Z,3.40
2019-03-03T07:01:48.995Z,3.40
2019-03-03T07:04:20.003Z,3.50
2019-03-03T07:06:51.033Z,3.50
2019-03-03T07:09:22.103Z,3.50
2019-03-03T07:11:53.085Z,3.50
2019-03-03T07:14:24.047Z,3.60
2019-03-03T07:16:55.167Z,3.60
2019-03-03T07:19:26.146Z,3.60
2019-03-03T07:21:57.203Z,3.60
2019-03-03T07:24:28.147Z,3.60
2019-03-03T07:26:59.386Z,3.70
2019-03-03T07:29:30.302Z,3.70
2019-03-03T07:32:01.268Z,3.70
2019-03-03T07:34:32.152Z,3.70
2019-03-03T07:37:03.276Z,3.70
2019-03-03T07:39:34.138Z,3.70
2019-03-03T07:42:06.636Z,3.70
2019-03-03T07:44:37.523Z,3.80
2019-03-03T07:47:09.574Z,3.80
2019-03-03T07:49:40.664Z,3.80
2019-03-03T07:52:11.723Z,3.90
2019-03-03T07:54:44.114Z,3.90
2019-03-03T07:57:15.220Z,4.00
2019-03-03T07:59:46.306Z,4.10
2019-03-03T08:02:17.323Z,4.30
2019-03-03T08:04:49.961Z,4.40
2019-03-03T08:07:20.941Z,4.50
2019-03-03T08:09:52.600Z,4.50
2019-03-03T08:12:24.356Z,4.60
2019-03-03T08:14:55.356Z,4.60
2019-03-03T08:17:26.492Z,4.70
2019-03-03T08:19:58.811Z,4.70
2019-03-03T08:22:30.187Z,4.70
2019-03-03T08:25:01.691Z,4.90
2019-03-03T08:27:32.730Z,5.00
2019-03-03T08:30:03.904Z,5.10
2019-03-03T08:32:36.119Z,5.30
2019-03-03T08:35:09.056Z,5.30
2019-03-03T08:37:48.507Z,5.30
2019-03-03T08:40:20.764Z,5.50
2019-03-03T08:43:09.488Z,5.40
2019-03-03T08:45:59.380Z,5.40
2019-03-03T08:48:40.785Z,5.30
2019-03-03T08:51:23.741Z,5.40
2019-03-03T08:54:15.500Z,5.50
2019-03-03T08:57:11.608Z,5.50
2019-03-03T08:59:58.879Z,5.70
2019-03-03T09:02:58.398Z,5.80
2019-03-03T09:05:54.733Z,5.80
2019-03-03T09:08:43.176Z,5.80
2019-03-03T09:11:38.040Z,5.80
2019-03-03T09:14:40.598Z,5.80
2019-03-03T09:17:29.434Z,5.80
2019-03-03T09:20:28.813Z,5.80
2019-03-03T09:23:29.582Z,5.70
2019-03-03T09:26:12.991Z,5.60
2019-03-03T09:29:05.426Z,5.50
2019-03-03T09:31:48.948Z,5.40
2019-03-03T09:34:37.708Z,5.40
2019-03-03T09:37:27.510Z,5.40
2019-03-03T09:40:32.528Z,5.40
2019-03-03T09:43:11.286Z,5.40
2019-03-03T09:46:10.626Z,5.60
2019-03-03T09:49:17.231Z,5.70
2019-03-03T09:52:17.936Z,5.70
2019-03-03T09:55:22.523Z,5.80
2019-03-03T09:58:10.320Z,5.90
2019-03-03T10:01:12.835Z,6.30
2019-03-03T10:04:05.518Z,6.50
2019-03-03T10:07:10.522Z,6.50
2019-03-03T10:10:09.178Z,6.50
2019-03-03T10:12:56.634Z,6.50
2019-03-03T10:15:43.668Z,6.50
2019-03-03T10:18:23.664Z,6.30
2019-03-03T10:21:06.546Z,6.20
2019-03-03T10:24:06.849Z,6.20
2019-03-03T10:26:59.743Z,6.10
2019-03-03T10:30:00.392Z,6.10
2019-03-03T10:32:49.430Z,6.10
2019-03-03T10:35:48.971Z,6.10
2019-03-03T10:38:37.991Z,6.10
2019-03-03T10:41:16.445Z,6.20
2019-03-03T10:44:02.405Z,6.30
2019-03-03T10:46:50.426Z,6.30
2019-03-03T10:49:46.801Z,6.40
2019-03-03T10:52:25.976Z,6.50
2019-03-03T10:55:28.538Z,6.50
2019-03-03T10:58:20.833Z,6.50
2019-03-03T11:01:23.157Z,6.50
2019-03-03T11:04:19.604Z,6.50
2019-03-03T11:07:10.199Z,6.50
2019-03-03T11:10:00.696Z,6.50
2019-03-03T11:12:49.776Z,6.50
2019-03-03T11:15:38.576Z,6.60
2019-03-03T11:18:27.289Z,6.70
2019-03-03T11:21:17.846Z,6.70
2019-03-03T11:24:10.323Z,6.70
2019-03-03T11:27:01.654Z,6.80
2019-03-03T11:29:43.174Z,6.90
2019-03-03T11:32:32.140Z,7.00
2019-03-03T11:35:25.254Z,7.00
2019-03-03T11:38:11.094Z,6.90
2019-03-03T11:40:55.040Z,6.80
2019-03-03T11:43:51.315Z,6.80
2019-03-03T11:47:02.407Z,6.70
2019-03-03T11:49:58.570Z,6.80
2019-03-03T11:52:43.784Z,6.80
2019-03-03T11:55:45.259Z,6.80
2019-03-03T11:58:30.156Z,6.80
2019-03-03T12:01:23.361Z,6.80
2019-03-03T12:04:13.718Z,6.80
2019-03-03T12:06:57.017Z,6.80
2019-03-03T12:09:41.461Z,6.90
2019-03-03T12:12:37.951Z,6.90
2019-03-03T12:15:28.274Z,7.00
2019-03-03T12:18:17.244Z,7.00
2019-03-03T12:20:59.985Z,7.10
2019-03-03T12:24:06.456Z,7.10
2019-03-03T12:26:59.491Z,7.20
2019-03-03T12:29:48.081Z,7.10
2019-03-03T12:32:40.626Z,7.20
2019-03-03T12:35:19.806Z,7.30
2019-03-03T12:38:07.002Z,7.30
2019-03-03T12:40:53.615Z,7.40
2019-03-03T12:43:53.047Z,7.40
2019-03-03T12:46:41.751Z,7.40
2019-03-03T12:49:35.226Z,7.50
2019-03-03T12:52:19.445Z,7.60
2019-03-03T12:55:09.646Z,7.70
2019-03-03T12:58:07.443Z,7.80
2019-03-03T13:01:03.524Z,7.80
2019-03-03T13:03:53.393Z,7.80
2019-03-03T13:06:32.600Z,7.90
2019-03-03T13:09:31.293Z,7.90
2019-03-03T13:12:24.230Z,8.00
2019-03-03T13:15:26.688Z,8.00
2019-03-03T13:18:15.677Z,8.00
2019-03-03T13:21:04.452Z,8.00
2019-03-03T13:24:00.009Z,8.00
2019-03-03T13:26:48.405Z,8.00
2019-03-03T13:29:49.024Z,8.00
2019-03-03T13:32:27.180Z,8.10
2019-03-03T13:35:23.758Z,8.20
2019-03-03T13:38:07.278Z,8.20
2019-03-03T13:41:00.349Z,8.20
2019-03-03T13:43:37.950Z,8.20
2019-03-03T13:46:10.665Z,8.20
2019-03-03T13:48:41.807Z,8.10
2019-03-03T13:51:13.162Z,8.10
2019-03-03T13:53:45.940Z,8.10
2019-03-03T13:56:17.874Z,8.10
2019-03-03T13:58:59.914Z,8.20
2019-03-03T14:01:31.127Z,8.20
2019-03-03T14:04:02.177Z,8.20
2019-03-03T14:06:33.376Z,8.20
2019-03-03T14:09:05.565Z,8.20
2019-03-03T14:11:37.210Z,8.30
2019-03-03T14:14:11.527Z,8.30
2019-03-03T14:16:44.868Z,8.40
2019-03-03T14:19:21.066Z,8.40
2019-03-03T14:21:52.207Z,8.40
2019-03-03T14:24:23.186Z,8.50
2019-03-03T14:26:54.419Z,8.50
2019-03-03T14:29:25.448Z,8.50
2019-03-03T14:31:56.553Z,8.50
2019-03-03T14:34:28.102Z,8.50
2019-03-03T14:36:59.633Z,8.50
2019-03-03T14:39:30.924Z,8.60
2019-03-03T14:42:02.000Z,8.50
2019-03-03T14:44:33.765Z,8.50
2019-03-03T14:47:04.934Z,8.50
2019-03-03T14:49:35.866Z,8.60
2019-03-03T14:52:06.965Z,8.50
2019-03-03T14:54:38.285Z,8.50
2019-03-03T14:57:09.739Z,8.50
2019-03-03T14:59:42.918Z,8.50
2019-03-03T15:05:13.353Z,8.50
2019-03-03T15:07:45.806Z,8.50
2019-03-03T15:10:17.061Z,8.50
2019-03-03T15:12:48.454Z,8.50
2019-03-03T15:15:20.696Z,8.50
2019-03-03T15:17:53.820Z,8.50
2019-03-03T15:20:25.109Z,8.50
2019-03-03T15:22:59.402Z,8.60
2019-03-03T15:25:33.709Z,8.50
2019-03-03T15:28:10.051Z,8.60
2019-03-03T15:30:42.181Z,8.60
2019-03-03T15:33:13.605Z,8.50
2019-03-03T15:35:44.771Z,8.50
2019-03-03T15:38:16.274Z,8.50
2019-03-03T15:40:48.664Z,8.50
2019-03-03T15:43:20.922Z,8.50
2019-03-03T15:46:01.243Z,8.50
2019-03-03T15:51:27.756Z,8.60
2019-03-03T15:54:12.156Z,8.60
2019-03-03T15:56:43.962Z,8.70
2019-03-03T15:59:15.860Z,8.80
2019-03-03T16:01:47.523Z,8.80
2019-03-03T16:04:19.746Z,8.80
2019-03-03T16:06:50.877Z,8.80
2019-03-03T16:09:21.999Z,8.90
2019-03-03T16:11:53.280Z,8.90
2019-03-03T16:14:24.384Z,8.90
2019-03-03T16:16:59.733Z,8.90
2019-03-03T16:19:30.913Z,9.00
2019-03-03T16:22:02.047Z,9.00
2019-03-03T16:24:34.164Z,8.90
2019-03-03T16:27:05.388Z,8.90
2019-03-03T16:29:36.540Z,8.90
2019-03-03T16:32:08.043Z,8.90
2019-03-03T16:34:39.844Z,9.00
2019-03-03T16:37:11.694Z,9.00
2019-03-03T16:39:43.094Z,8.90
2019-03-03T16:42:15.702Z,9.00
2019-03-03T16:44:46.733Z,9.00
2019-03-03T16:47:17.715Z,9.00
2019-03-03T16:49:49.835Z,9.00
2019-03-03T16:52:21.278Z,9.10
2019-03-03T16:54:58.781Z,9.10
2019-03-03T16:57:29.810Z,9.10
2019-03-03T17:00:08.626Z,9.20
2019-03-03T17:02:40.077Z,9.20
2019-03-03T17:05:12.327Z,9.20
2019-03-03T17:07:44.273Z,9.10
2019-03-03T17:10:16.696Z,9.20
2019-03-03T17:12:47.887Z,9.10
2019-03-03T17:15:20.734Z,9.20
2019-03-03T17:17:51.879Z,9.20
2019-03-03T17:20:23.250Z,9.10
2019-03-03T17:22:55.331Z,9.20
2019-03-03T17:25:26.713Z,9.20
2019-03-03T17:27:57.931Z,9.20
2019-03-03T17:30:31.081Z,9.20
2019-03-03T17:33:01.873Z,9.10
2019-03-03T17:35:34.982Z,9.20
2019-03-03T17:38:10.968Z,9.20
2019-03-03T17:40:42.421Z,9.20
2019-03-03T17:43:13.977Z,9.20
2019-03-03T17:45:45.121Z,9.20
2019-03-03T17:48:16.420Z,9.20
2019-03-03T17:50:47.683Z,9.20
2019-03-03T17:53:18.818Z,9.10
2019-03-03T17:55:50.695Z,9.10
2019-03-03T17:58:22.288Z,9.00
2019-03-03T18:00:53.802Z,9.00
2019-03-03T18:03:25.075Z,9.00
2019-03-03T18:05:56.897Z,9.00
2019-03-03T18:08:28.205Z,9.00
2019-03-03T18:10:59.991Z,9.00
2019-03-03T18:13:31.066Z,9.00
2019-03-03T18:16:03.222Z,8.90
2019-03-03T18:18:35.058Z,8.90
2019-03-03T18:21:06.852Z,8.90
2019-03-03T18:23:39.963Z,8.90
2019-03-03T18:26:11.777Z,8.90
2019-03-03T18:28:42.912Z,8.80
2019-03-03T18:31:14.570Z,8.90
2019-03-03T18:33:46.293Z,8.80
2019-03-03T18:36:17.541Z,8.80
2019-03-03T18:38:48.761Z,8.80
2019-03-03T18:41:20.463Z,8.80
2019-03-03T18:43:51.458Z,8.80
2019-03-03T18:46:22.574Z,8.70
2019-03-03T18:48:53.571Z,8.70
2019-03-03T18:51:24.974Z,8.70
2019-03-03T18:53:57.135Z,8.70
2019-03-03T18:56:32.425Z,8.70
2019-03-03T18:59:04.462Z,8.60
2019-03-03T19:01:41.209Z,8.70
2019-03-03T19:04:13.049Z,8.70
2019-03-03T19:06:45.029Z,8.70
2019-03-03T19:09:21.342Z,8.60
2019-03-03T19:11:52.951Z,8.60
2019-03-03T19:14:28.780Z,8.60
2019-03-03T19:17:00.420Z,8.60
2019-03-03T19:19:34.906Z,8.60
2019-03-03T19:22:06.459Z,8.60
2019-03-03T19:24:41.082Z,8.60
2019-03-03T19:27:14.789Z,8.60
2019-03-03T19:29:46.021Z,8.60
2019-03-03T19:32:17.549Z,8.60
2019-03-03T19:34:57.926Z,8.60
2019-03-03T19:37:29.586Z,8.70
2019-03-03T19:40:00.897Z,8.70
2019-03-03T19:42:34.448Z,8.70
2019-03-03T19:45:11.605Z,8.70
2019-03-03T19:47:46.672Z,8.70
2019-03-03T19:50:27.365Z,8.80
2019-03-03T19:52:59.318Z,8.80
2019-03-03T19:55:30.658Z,8.80
2019-03-03T19:58:04.707Z,8.80
2019-03-03T20:00:38.921Z,8.80
2019-03-03T20:03:09.557Z,8.80
2019-03-03T20:05:47.966Z,8.70
2019-03-03T20:08:21.231Z,8.80
2019-03-03T20:10:53.011Z,8.70
2019-03-03T20:13:26.192Z,8.70
2019-03-03T20:16:23.600Z,8.70
2019-03-03T20:18:55.307Z,8.70
2019-03-03T20:21:26.659Z,8.70
2019-03-03T20:23:57.931Z,8.70
2019-03-03T20:26:29.507Z,8.70
2019-03-03T20:29:00.817Z,8.70
2019-03-03T20:31:32.311Z,8.70
2019-03-03T20:34:03.976Z,8.70
2019-03-03T20:36:35.347Z,8.70
2019-03-03T20:39:08.229Z,8.70
2019-03-03T20:41:39.890Z,8.70
2019-03-03T20:44:11.380Z,8.70
2019-03-03T20:46:42.620Z,8.80
2019-03-03T20:49:14.049Z,8.80
2019-03-03T20:51:45.139Z,8.80
2019-03-03T20:54:16.218Z,8.80
2019-03-03T20:56:47.539Z,8.90
2019-03-03T20:59:18.872Z,8.90
2019-03-03T21:01:50.123Z,8.90
2019-03-03T21:04:21.471Z,8.90
2019-03-03T21:06:52.480Z,8.90
2019-03-03T21:09:23.838Z,8.90
2019-03-03T21:11:55.059Z,8.90
2019-03-03T21:14:26.440Z,9.00
2019-03-03T21:16:57.619Z,9.00
2019-03-03T21:19:28.896Z,8.90
2019-03-03T21:22:00.106Z,8.90
2019-03-03T21:24:31.363Z,8.90
2019-03-03T21:27:02.334Z,8.90
2019-03-03T21:29:33.428Z,8.90
2019-03-03T21:32:04.461Z,8.80
2019-03-03T21:34:35.689Z,8.80
2019-03-03T21:37:06.833Z,8.80
2019-03-03T21:39:38.229Z,8.80
2019-03-03T21:42:09.656Z,8.70
2019-03-03T21:44:40.815Z,8.70
2019-03-03T21:47:11.809Z,8.70
2019-03-03T21:49:42.979Z,8.70
2019-03-03T21:52:14.130Z,8.60
2019-03-03T21:54:46.901Z,8.60
2019-03-03T21:57:18.055Z,8.50
2019-03-03T21:59:49.138Z,8.50
2019-03-03T22:02:20.938Z,8.50
2019-03-03T22:04:52.490Z,8.50
2019-03-03T22:07:23.838Z,8.50
2019-03-03T22:09:55.479Z,8.50
2019-03-03T22:12:26.948Z,8.50
2019-03-03T22:14:59.207Z,8.50
2019-03-03T22:17:31.010Z,8.50
2019-03-03T22:20:02.900Z,8.60
2019-03-03T22:22:34.611Z,8.60
2019-03-03T22:25:09.200Z,8.60
2019-03-03T22:27:41.014Z,8.60
2019-03-03T22:30:12.241Z,8.50
2019-03-03T22:32:44.072Z,8.50
2019-03-03T22:35:15.529Z,8.40
2019-03-03T22:37:46.969Z,8.40
2019-03-03T22:40:18.196Z,8.40
2019-03-03T22:42:49.209Z,8.40
2019-03-03T22:45:20.414Z,8.30
2019-03-03T22:47:51.448Z,8.30
2019-03-03T22:50:22.836Z,8.30
2019-03-03T22:52:53.976Z,8.30
2019-03-03T22:55:25.249Z,8.30
2019-03-03T22:57:56.270Z,8.30
2019-03-03T23:00:53.859Z,8.30
2019-03-03T23:03:30.128Z,8.30
2019-03-03T23:06:28.574Z,8.30
2019-03-03T23:09:49.562Z,8.30
2019-03-03T23:12:39.009Z,8.30
2019-03-03T23:15:59.551Z,8.30
2019-03-03T23:18:56.269Z,8.30
2019-03-03T23:22:01.598Z,8.30
2019-03-03T23:25:28.726Z,8.20
2019-03-03T23:28:00.952Z,8.20
2019-03-03T23:30:32.018Z,8.20
2019-03-03T23:33:02.971Z,8.20
2019-03-03T23:35:34.002Z,8.20
2019-03-03T23:38:05.027Z,8.20
2019-03-03T23:40:35.955Z,8.20
2019-03-03T23:43:07.224Z,8.20
2019-03-03T23:45:38.115Z,8.20
2019-03-03T23:48:09.229Z,8.10
2019-03-03T23:50:40.380Z,8.10
2019-03-03T23:53:11.398Z,8.10
2019-03-03T23:55:42.377Z,8.10
2019-03-03T23:58:14.368Z,8.00
